sensor_id;sensor_type;location;lat;lon;timestamp;pressure;altitude;pressure_sealevel;temperature;humidity
76866;BME280;66647;52.124;5.416;2023-03-29T00:02:02;101780.75;;;5.24;80.78
76866;BME280;66647;52.124;5.416;2023-03-29T00:04:30;101784.56;;;5.23;80.63
76866;BME280;66647;52.124;5.416;2023-03-29T00:06:56;101776.66;;;5.22;80.80
76866;BME280;66647;52.124;5.416;2023-03-29T00:09:30;101779.38;;;5.22;80.64
76866;BME280;66647;52.124;5.416;2023-03-29T00:11:59;101775.56;;;5.23;80.93
76866;BME280;66647;52.124;5.416;2023-03-29T00:14:28;101773.41;;;5.25;81.08
76866;BME280;66647;52.124;5.416;2023-03-29T00:16:57;101777.75;;;5.26;80.78
76866;BME280;66647;52.124;5.416;2023-03-29T00:19:25;101774.22;;;5.25;81.17
76866;BME280;66647;52.124;5.416;2023-03-29T00:21:54;101763.34;;;5.25;80.74
76866;BME280;66647;52.124;5.416;2023-03-29T00:24:20;101761.72;;;5.24;80.93
76866;BME280;66647;52.124;5.416;2023-03-29T00:26:50;101762.53;;;5.25;80.93
76866;BME280;66647;52.124;5.416;2023-03-29T00:29:18;101749.75;;;5.25;81.18
76866;BME280;66647;52.124;5.416;2023-03-29T00:31:44;101743.50;;;5.25;81.07
76866;BME280;66647;52.124;5.416;2023-03-29T00:34:19;101739.16;;;5.24;81.47
76866;BME280;66647;52.124;5.416;2023-03-29T00:36:46;101732.06;;;5.23;81.26
76866;BME280;66647;52.124;5.416;2023-03-29T00:39:16;101735.59;;;5.23;80.93
76866;BME280;66647;52.124;5.416;2023-03-29T00:41:49;101727.44;;;5.23;81.29
76866;BME280;66647;52.124;5.416;2023-03-29T00:47:21;101722.00;;;5.23;80.98
76866;BME280;66647;52.124;5.416;2023-03-29T00:49:50;101717.41;;;5.24;81.39
76866;BME280;66647;52.124;5.416;2023-03-29T00:52:19;101714.41;;;5.25;81.07
76866;BME280;66647;52.124;5.416;2023-03-29T00:54:50;101706.25;;;5.25;81.22
76866;BME280;66647;52.124;5.416;2023-03-29T00:57:19;101709.78;;;5.26;81.17
76866;BME280;66647;52.124;5.416;2023-03-29T00:59:49;101707.88;;;5.26;81.02
76866;BME280;66647;52.124;5.416;2023-03-29T01:02:20;101703.00;;;5.28;80.66
76866;BME280;66647;52.124;5.416;2023-03-29T01:04:53;101702.47;;;5.31;80.68
76866;BME280;66647;52.124;5.416;2023-03-29T01:07:25;101697.56;;;5.33;80.28
76866;BME280;66647;52.124;5.416;2023-03-29T01:10:12;101687.25;;;5.35;80.12
76866;BME280;66647;52.124;5.416;2023-03-29T01:12:49;101684.53;;;5.35;80.31
76866;BME280;66647;52.124;5.416;2023-03-29T01:15:19;101675.81;;;5.38;80.21
76866;BME280;66647;52.124;5.416;2023-03-29T01:17:47;101683.72;;;5.40;79.99
76866;BME280;66647;52.124;5.416;2023-03-29T01:25:37;101668.22;;;5.46;78.69
76866;BME280;66647;52.124;5.416;2023-03-29T01:28:13;101670.41;;;5.49;78.95
76866;BME280;66647;52.124;5.416;2023-03-29T01:30:55;101671.75;;;5.51;78.69
76866;BME280;66647;52.124;5.416;2023-03-29T01:33:30;101668.47;;;5.54;79.06
76866;BME280;66647;52.124;5.416;2023-03-29T01:36:11;101672.81;;;5.55;78.59
76866;BME280;66647;52.124;5.416;2023-03-29T01:38:55;101672.00;;;5.60;78.57
76866;BME280;66647;52.124;5.416;2023-03-29T01:41:31;101662.75;;;5.61;77.98
76866;BME280;66647;52.124;5.416;2023-03-29T01:44:27;101657.06;;;5.62;78.44
76866;BME280;66647;52.124;5.416;2023-03-29T01:47:22;101658.41;;;5.65;78.16
76866;BME280;66647;52.124;5.416;2023-03-29T01:49:58;101651.63;;;5.67;77.69
76866;BME280;66647;52.124;5.416;2023-03-29T01:52:35;101652.97;;;5.70;78.19
76866;BME280;66647;52.124;5.416;2023-03-29T01:55:13;101653.53;;;5.72;77.74
76866;BME280;66647;52.124;5.416;2023-03-29T01:57:43;101648.63;;;5.74;77.83
76866;BME280;66647;52.124;5.416;2023-03-29T02:00:20;101644.81;;;5.75;77.33
76866;BME280;66647;52.124;5.416;2023-03-29T02:02:47;101648.34;;;5.76;77.70
76866;BME280;66647;52.124;5.416;2023-03-29T02:05:18;101640.19;;;5.76;77.83
76866;BME280;66647;52.124;5.416;2023-03-29T02:07:47;101634.47;;;5.77;77.63
76866;BME280;66647;52.124;5.416;2023-03-29T02:10:16;101631.75;;;5.77;78.30
76866;BME280;66647;52.124;5.416;2023-03-29T02:12:43;101632.84;;;5.76;77.97
76866;BME280;66647;52.124;5.416;2023-03-29T02:15:13;101635.84;;;5.74;78.78
76866;BME280;66647;52.124;5.416;2023-03-29T02:17:40;101625.75;;;5.75;78.37
76866;BME280;66647;52.124;5.416;2023-03-29T02:20:12;101620.03;;;5.77;78.46
76866;BME280;66647;52.124;5.416;2023-03-29T02:25:16;101613.78;;;5.76;78.79
76866;BME280;66647;52.124;5.416;2023-03-29T02:27:44;101621.97;;;5.76;78.71
76866;BME280;66647;52.124;5.416;2023-03-29T02:30:12;101618.16;;;5.77;79.03
76866;BME280;66647;52.124;5.416;2023-03-29T02:32:59;101617.31;;;5.77;78.96
76866;BME280;66647;52.124;5.416;2023-03-29T02:35:32;101608.06;;;5.78;78.54
76866;BME280;66647;52.124;5.416;2023-03-29T02:38:04;101609.72;;;5.79;78.87
76866;BME280;66647;52.124;5.416;2023-03-29T02:40:32;101613.50;;;5.78;79.24
76866;BME280;66647;52.124;5.416;2023-03-29T02:43:01;101608.06;;;5.78;79.39
76866;BME280;66647;52.124;5.416;2023-03-29T02:45:29;101608.88;;;5.78;79.58
76866;BME280;66647;52.124;5.416;2023-03-29T02:48:04;101606.72;;;5.80;79.60
76866;BME280;66647;52.124;5.416;2023-03-29T02:50:39;101605.06;;;5.79;79.73
76866;BME280;66647;52.124;5.416;2023-03-29T02:53:17;101594.75;;;5.81;79.52
76866;BME280;66647;52.124;5.416;2023-03-29T02:55:46;101595.00;;;5.80;79.83
76866;BME280;66647;52.124;5.416;2023-03-29T02:58:14;101595.81;;;5.80;79.90
76866;BME280;66647;52.124;5.416;2023-03-29T03:00:44;101595.00;;;5.80;79.93
76866;BME280;66647;52.124;5.416;2023-03-29T03:03:11;101590.38;;;5.80;80.00
76866;BME280;66647;52.124;5.416;2023-03-29T03:05:41;101593.09;;;5.80;80.39
76866;BME280;66647;52.124;5.416;2023-03-29T03:08:09;101593.91;;;5.81;80.35
76866;BME280;66647;52.124;5.416;2023-03-29T03:10:37;101601.28;;;5.80;80.31
76866;BME280;66647;52.124;5.416;2023-03-29T03:13:04;101581.41;;;5.80;80.65
76866;BME280;66647;52.124;5.416;2023-03-29T03:15:31;101579.22;;;5.82;80.80
76866;BME280;66647;52.124;5.416;2023-03-29T03:18:02;101571.06;;;5.82;80.97
76866;BME280;66647;52.124;5.416;2023-03-29T03:20:30;101564.81;;;5.81;81.05
76866;BME280;66647;52.124;5.416;2023-03-29T03:22:57;101567.78;;;5.80;81.08
76866;BME280;66647;52.124;5.416;2023-03-29T03:25:24;101558.81;;;5.79;81.54
76866;BME280;66647;52.124;5.416;2023-03-29T03:27:51;101563.16;;;5.80;81.12
76866;BME280;66647;52.124;5.416;2023-03-29T03:30:20;101566.72;;;5.81;81.29
76866;BME280;66647;52.124;5.416;2023-03-29T03:33:19;101562.34;;;5.80;81.33
76866;BME280;66647;52.124;5.416;2023-03-29T03:35:46;101566.97;;;5.79;81.68
76866;BME280;66647;52.124;5.416;2023-03-29T03:38:18;101554.47;;;5.78;81.31
76866;BME280;66647;52.124;5.416;2023-03-29T03:40:53;101558.81;;;5.79;81.44
76866;BME280;66647;52.124;5.416;2023-03-29T03:43:21;101553.38;;;5.79;81.16
76866;BME280;66647;52.124;5.416;2023-03-29T03:45:48;101560.72;;;5.79;81.52
76866;BME280;66647;52.124;5.416;2023-03-29T03:48:18;101562.63;;;5.78;81.49
76866;BME280;66647;52.124;5.416;2023-03-29T03:50:56;101551.47;;;5.80;81.69
76866;BME280;66647;52.124;5.416;2023-03-29T03:53:28;101556.09;;;5.79;81.64
76866;BME280;66647;52.124;5.416;2023-03-29T03:56:12;101567.53;;;5.81;81.86
76866;BME280;66647;52.124;5.416;2023-03-29T03:58:57;101565.63;;;5.82;81.74
76866;BME280;66647;52.124;5.416;2023-03-29T04:01:25;101561.00;;;5.82;81.52
76866;BME280;66647;52.124;5.416;2023-03-29T04:04:13;101557.44;;;5.82;81.72
76866;BME280;66647;52.124;5.416;2023-03-29T04:06:51;101561.00;;;5.82;81.65
76866;BME280;66647;52.124;5.416;2023-03-29T04:09:45;101570.78;;;5.83;81.67
76866;BME280;66647;52.124;5.416;2023-03-29T04:12:40;101557.19;;;5.83;81.79
76866;BME280;66647;52.124;5.416;2023-03-29T04:15:07;101550.66;;;5.84;81.56
76866;BME280;66647;52.124;5.416;2023-03-29T04:17:37;101551.72;;;5.83;81.56
76866;BME280;66647;52.124;5.416;2023-03-29T04:20:16;101554.19;;;5.85;81.52
76866;BME280;66647;52.124;5.416;2023-03-29T04:22:43;101541.66;;;5.84;81.75
76866;BME280;66647;52.124;5.416;2023-03-29T04:25:12;101547.91;;;5.84;81.55
76866;BME280;66647;52.124;5.416;2023-03-29T04:27:57;101544.06;;;5.85;81.39
76866;BME280;66647;52.124;5.416;2023-03-29T04:30:45;101542.47;;;5.84;81.64
76866;BME280;66647;52.124;5.416;2023-03-29T04:33:17;101538.63;;;5.85;81.38
76866;BME280;66647;52.124;5.416;2023-03-29T04:35:49;101534.81;;;5.86;81.58
76866;BME280;66647;52.124;5.416;2023-03-29T04:38:17;101533.19;;;5.85;81.61
76866;BME280;66647;52.124;5.416;2023-03-29T04:40:49;101532.09;;;5.86;81.49
76866;BME280;66647;52.124;5.416;2023-03-29T04:43:22;101522.03;;;5.87;81.31
76866;BME280;66647;52.124;5.416;2023-03-29T04:45:58;101531.00;;;5.87;81.44
76866;BME280;66647;52.124;5.416;2023-03-29T04:48:43;101534.81;;;5.86;81.10
76866;BME280;66647;52.124;5.416;2023-03-29T04:51:11;101527.19;;;5.88;81.33
76866;BME280;66647;52.124;5.416;2023-03-29T04:53:38;101525.03;;;5.90;81.54
76866;BME280;66647;52.124;5.416;2023-03-29T04:56:05;101532.41;;;5.90;81.56
76866;BME280;66647;52.124;5.416;2023-03-29T04:58:53;101529.69;;;5.90;81.13
76866;BME280;66647;52.124;5.416;2023-03-29T05:01:20;101521.50;;;5.90;81.52
76866;BME280;66647;52.124;5.416;2023-03-29T05:03:54;101525.03;;;5.90;81.25
76866;BME280;66647;52.124;5.416;2023-03-29T05:06:27;101532.13;;;5.91;81.51
76866;BME280;66647;52.124;5.416;2023-03-29T05:08:54;101527.50;;;5.92;81.55
76866;BME280;66647;52.124;5.416;2023-03-29T05:11:32;101522.03;;;5.92;81.00
76866;BME280;66647;52.124;5.416;2023-03-29T05:13:58;101517.41;;;5.92;81.10
76866;BME280;66647;52.124;5.416;2023-03-29T05:16:32;101519.06;;;5.93;81.46
76866;BME280;66647;52.124;5.416;2023-03-29T05:19:00;101506.78;;;5.96;81.00
76866;BME280;66647;52.124;5.416;2023-03-29T05:21:28;101514.69;;;5.97;80.95
76866;BME280;66647;52.124;5.416;2023-03-29T05:23:57;101522.56;;;5.99;81.32
76866;BME280;66647;52.124;5.416;2023-03-29T05:26:47;101519.84;;;5.99;80.97
76866;BME280;66647;52.124;5.416;2023-03-29T05:29:17;101509.78;;;5.99;80.85
76866;BME280;66647;52.124;5.416;2023-03-29T05:31:48;101518.47;;;6.01;80.94
76866;BME280;66647;52.124;5.416;2023-03-29T05:34:15;101529.09;;;6.03;81.19
76866;BME280;66647;52.124;5.416;2023-03-29T05:36:48;101524.47;;;6.03;81.40
76866;BME280;66647;52.124;5.416;2023-03-29T05:39:17;101525.00;;;6.05;81.21
76866;BME280;66647;52.124;5.416;2023-03-29T05:41:45;101518.47;;;6.06;81.21
76866;BME280;66647;52.124;5.416;2023-03-29T05:44:41;101531.81;;;6.08;80.98
76866;BME280;66647;52.124;5.416;2023-03-29T05:47:15;101529.88;;;6.09;81.20
76866;BME280;66647;52.124;5.416;2023-03-29T05:49:41;101519.53;;;6.11;80.74
76866;BME280;66647;52.124;5.416;2023-03-29T05:52:12;101529.34;;;6.12;80.97
76866;BME280;66647;52.124;5.416;2023-03-29T05:54:40;101528.25;;;6.13;80.88
76866;BME280;66647;52.124;5.416;2023-03-29T05:57:08;101531.50;;;6.15;81.35
76866;BME280;66647;52.124;5.416;2023-03-29T05:59:35;101530.41;;;6.16;81.16
76866;BME280;66647;52.124;5.416;2023-03-29T06:02:02;101531.72;;;6.18;80.63
76866;BME280;66647;52.124;5.416;2023-03-29T06:04:37;101524.09;;;6.20;80.44
76866;BME280;66647;52.124;5.416;2023-03-29T06:07:24;101522.72;;;6.23;81.12
76866;BME280;66647;52.124;5.416;2023-03-29T06:10:16;101531.44;;;6.25;80.95
76866;BME280;66647;52.124;5.416;2023-03-29T06:12:47;101534.69;;;6.27;81.05
76866;BME280;66647;52.124;5.416;2023-03-29T06:15:16;101528.69;;;6.30;80.68
76866;BME280;66647;52.124;5.416;2023-03-29T06:17:48;101539.84;;;6.33;80.12
76866;BME280;66647;52.124;5.416;2023-03-29T06:20:16;101526.75;;;6.35;80.66
76866;BME280;66647;52.124;5.416;2023-03-29T06:22:48;101532.47;;;6.39;80.36
76866;BME280;66647;52.124;5.416;2023-03-29T06:25:15;101529.19;;;6.42;80.53
76866;BME280;66647;52.124;5.416;2023-03-29T06:27:44;101531.88;;;6.47;80.71
76866;BME280;66647;52.124;5.416;2023-03-29T06:30:16;101534.81;;;6.51;80.18
76866;BME280;66647;52.124;5.416;2023-03-29T06:32:46;101540.53;;;6.54;80.44
76866;BME280;66647;52.124;5.416;2023-03-29T06:35:26;101529.59;;;6.59;80.66
76866;BME280;66647;52.124;5.416;2023-03-29T06:38:02;101536.66;;;6.65;80.57
76866;BME280;66647;52.124;5.416;2023-03-29T06:40:59;101532.81;;;6.71;80.37
76866;BME280;66647;52.124;5.416;2023-03-29T06:43:32;101531.16;;;6.76;80.26
76866;BME280;66647;52.124;5.416;2023-03-29T06:46:06;101535.75;;;6.80;80.00
76866;BME280;66647;52.124;5.416;2023-03-29T06:48:51;101541.94;;;6.86;80.45
76866;BME280;66647;52.124;5.416;2023-03-29T06:51:19;101537.56;;;6.90;80.85
76866;BME280;66647;52.124;5.416;2023-03-29T06:53:52;101535.91;;;6.94;80.23
76866;BME280;66647;52.124;5.416;2023-03-29T06:56:19;101535.06;;;6.98;81.06
76866;BME280;66647;52.124;5.416;2023-03-29T06:58:54;101537.22;;;7.01;81.66
76866;BME280;66647;52.124;5.416;2023-03-29T07:01:49;101545.88;;;7.08;81.80
76866;BME280;66647;52.124;5.416;2023-03-29T07:04:24;101545.31;;;7.12;82.29
76866;BME280;66647;52.124;5.416;2023-03-29T07:07:09;101554.78;;;7.19;81.63
76866;BME280;66647;52.124;5.416;2023-03-29T07:09:53;101558.50;;;7.33;82.24
76866;BME280;66647;52.124;5.416;2023-03-29T07:12:39;101550.63;;;7.56;82.10
76866;BME280;66647;52.124;5.416;2023-03-29T07:15:07;101546.13;;;7.70;81.53
76866;BME280;66647;52.124;5.416;2023-03-29T07:17:53;101539.28;;;7.72;81.00
76866;BME280;66647;52.124;5.416;2023-03-29T07:20:24;101543.34;;;7.75;80.59
76866;BME280;66647;52.124;5.416;2023-03-29T07:23:03;101549.91;;;7.74;80.89
76866;BME280;66647;52.124;5.416;2023-03-29T07:25:30;101548.00;;;7.74;80.52
76866;BME280;66647;52.124;5.416;2023-03-29T07:27:57;101551.25;;;7.77;81.17
76866;BME280;66647;52.124;5.416;2023-03-29T07:30:27;101543.88;;;7.77;80.48
76866;BME280;66647;52.124;5.416;2023-03-29T07:33:09;101551.47;;;7.80;80.40
76866;BME280;66647;52.124;5.416;2023-03-29T07:35:41;101551.41;;;7.85;81.13
76866;BME280;66647;52.124;5.416;2023-03-29T07:38:09;101553.03;;;7.86;80.25
76866;BME280;66647;52.124;5.416;2023-03-29T07:40:40;101551.94;;;7.87;80.61
76866;BME280;66647;52.124;5.416;2023-03-29T07:43:25;101552.41;;;7.94;79.88
76866;BME280;66647;52.124;5.416;2023-03-29T07:45:52;101551.25;;;8.00;79.59
76866;BME280;66647;52.124;5.416;2023-03-29T07:48:19;101563.75;;;8.06;80.21
76866;BME280;66647;52.124;5.416;2023-03-29T07:50:54;101560.63;;;8.13;80.06
76866;BME280;66647;52.124;5.416;2023-03-29T07:53:26;101564.34;;;8.22;80.19
76866;BME280;66647;52.124;5.416;2023-03-29T07:55:56;101564.25;;;8.32;79.71
76866;BME280;66647;52.124;5.416;2023-03-29T07:58:43;101555.19;;;8.37;79.12
76866;BME280;66647;52.124;5.416;2023-03-29T08:01:10;101559.50;;;8.43;78.75
76866;BME280;66647;52.124;5.416;2023-03-29T08:04:02;101550.69;;;8.46;78.21
76866;BME280;66647;52.124;5.416;2023-03-29T08:06:49;101558.88;;;8.46;78.74
76866;BME280;66647;52.124;5.416;2023-03-29T08:09:17;101553.94;;;8.48;79.00
76866;BME280;66647;52.124;5.416;2023-03-29T08:11:43;101559.63;;;8.52;79.41
76866;BME280;66647;52.124;5.416;2023-03-29T08:14:22;101556.31;;;8.55;78.37
76866;BME280;66647;52.124;5.416;2023-03-29T08:17:00;101548.63;;;8.57;78.88
76866;BME280;66647;52.124;5.416;2023-03-29T08:19:29;101555.94;;;8.61;79.03
76866;BME280;66647;52.124;5.416;2023-03-29T08:22:02;101553.66;;;8.68;78.88
76866;BME280;66647;52.124;5.416;2023-03-29T08:25:05;101551.38;;;8.75;78.72
76866;BME280;66647;52.124;5.416;2023-03-29T08:27:38;101550.75;;;8.79;78.83
76866;BME280;66647;52.124;5.416;2023-03-29T08:30:07;101553.41;;;8.84;78.26
76866;BME280;66647;52.124;5.416;2023-03-29T08:32:39;101542.91;;;8.91;79.29
76866;BME280;66647;52.124;5.416;2023-03-29T08:35:08;101534.03;;;8.99;79.32
76866;BME280;66647;52.124;5.416;2023-03-29T08:37:41;101540.56;;;9.03;79.01
76866;BME280;66647;52.124;5.416;2023-03-29T08:40:19;101536.91;;;9.07;78.08
76866;BME280;66647;52.124;5.416;2023-03-29T08:46:43;101528.66;;;9.26;78.11
76866;BME280;66647;52.124;5.416;2023-03-29T08:49:24;101525.63;;;9.28;78.17
76866;BME280;66647;52.124;5.416;2023-03-29T08:51:55;101525.84;;;9.31;78.05
76866;BME280;66647;52.124;5.416;2023-03-29T08:54:26;101532.34;;;9.35;78.72
76866;BME280;66647;52.124;5.416;2023-03-29T08:57:28;101535.00;;;9.40;78.33
76866;BME280;66647;52.124;5.416;2023-03-29T09:00:04;101544.19;;;9.44;78.30
76866;BME280;66647;52.124;5.416;2023-03-29T09:02:36;101552.94;;;9.47;78.23
76866;BME280;66647;52.124;5.416;2023-03-29T09:05:32;101555.66;;;9.47;78.43
76866;BME280;66647;52.124;5.416;2023-03-29T09:08:13;101550.91;;;9.52;78.81
76866;BME280;66647;52.124;5.416;2023-03-29T09:10:46;101557.72;;;9.55;78.50
76866;BME280;66647;52.124;5.416;2023-03-29T09:22:28;101548.81;;;9.63;78.76
76866;BME280;66647;52.124;5.416;2023-03-29T09:27:38;101554.41;;;9.71;79.59
76866;BME280;66647;52.124;5.416;2023-03-29T09:36:09;101544.47;;;10.03;78.81
76866;BME280;66647;52.124;5.416;2023-03-29T09:38:41;101542.94;;;10.10;78.24
76866;BME280;66647;52.124;5.416;2023-03-29T09:42:15;101550.88;;;10.26;78.40
76866;BME280;66647;52.124;5.416;2023-03-29T09:44:46;101553.22;;;10.32;77.89
76866;BME280;66647;52.124;5.416;2023-03-29T09:47:23;101544.69;;;10.34;78.57
76866;BME280;66647;52.124;5.416;2023-03-29T09:50:05;101551.44;;;10.50;77.88
76866;BME280;66647;52.124;5.416;2023-03-29T09:52:53;101538.81;;;10.63;76.71
76866;BME280;66647;52.124;5.416;2023-03-29T09:55:25;101545.44;;;10.62;77.62
76866;BME280;66647;52.124;5.416;2023-03-29T09:58:30;101544.31;;;10.63;77.57
76866;BME280;66647;52.124;5.416;2023-03-29T10:01:02;101551.63;;;10.67;77.32
76866;BME280;66647;52.124;5.416;2023-03-29T10:03:31;101544.63;;;10.61;77.59
76866;BME280;66647;52.124;5.416;2023-03-29T10:06:10;101551.22;;;10.60;77.79
76866;BME280;66647;52.124;5.416;2023-03-29T10:08:47;101547.66;;;10.60;77.68
76866;BME280;66647;52.124;5.416;2023-03-29T10:11:40;101549.19;;;10.66;77.60
76866;BME280;66647;52.124;5.416;2023-03-29T10:14:15;101537.59;;;10.69;77.68
76866;BME280;66647;52.124;5.416;2023-03-29T10:16:45;101536.91;;;10.86;77.75
76866;BME280;66647;52.124;5.416;2023-03-29T10:19:21;101538.50;;;11.00;76.70
76866;BME280;66647;52.124;5.416;2023-03-29T10:21:52;101536.16;;;11.16;76.14
76866;BME280;66647;52.124;5.416;2023-03-29T10:24:23;101529.13;;;11.24;76.05
76866;BME280;66647;52.124;5.416;2023-03-29T10:26:59;101528.56;;;11.35;75.55
76866;BME280;66647;52.124;5.416;2023-03-29T10:29:37;101531.31;;;11.44;76.03
76866;BME280;66647;52.124;5.416;2023-03-29T10:32:15;101528.56;;;11.44;76.25
76866;BME280;66647;52.124;5.416;2023-03-29T10:34:44;101533.25;;;11.43;75.59
76866;BME280;66647;52.124;5.416;2023-03-29T10:37:12;101521.97;;;11.45;76.34
76866;BME280;66647;52.124;5.416;2023-03-29T10:39:41;101531.06;;;11.54;75.82
76866;BME280;66647;52.124;5.416;2023-03-29T10:42:12;101523.63;;;11.55;75.80
76866;BME280;66647;52.124;5.416;2023-03-29T10:44:40;101518.78;;;11.52;76.18
76866;BME280;66647;52.124;5.416;2023-03-29T10:47:13;101512.28;;;11.48;76.98
76866;BME280;66647;52.124;5.416;2023-03-29T10:49:44;101511.84;;;11.54;77.36
76866;BME280;66647;52.124;5.416;2023-03-29T10:52:14;101519.31;;;11.62;77.75
76866;BME280;66647;52.124;5.416;2023-03-29T10:54:45;101521.69;;;11.55;77.72
76866;BME280;66647;52.124;5.416;2023-03-29T10:57:15;101516.47;;;11.45;78.76
76866;BME280;66647;52.124;5.416;2023-03-29T11:03:45;101495.72;;;11.61;79.07
76866;BME280;66647;52.124;5.416;2023-03-29T11:09:37;101501.97;;;11.84;78.06
76866;BME280;66647;52.124;5.416;2023-03-29T11:12:19;101509.31;;;11.66;79.19
76866;BME280;66647;52.124;5.416;2023-03-29T11:30:06;101485.00;;;11.51;80.99
76866;BME280;66647;52.124;5.416;2023-03-29T11:43:25;101495.53;;;11.58;80.23
76866;BME280;66647;52.124;5.416;2023-03-29T11:46:01;101487.84;;;11.68;80.05
76866;BME280;66647;52.124;5.416;2023-03-29T11:48:34;101492.75;;;11.80;79.20
76866;BME280;66647;52.124;5.416;2023-03-29T11:53:54;101487.44;;;11.92;78.76
76866;BME280;66647;52.124;5.416;2023-03-29T11:56:42;101491.81;;;11.93;78.21
76866;BME280;66647;52.124;5.416;2023-03-29T11:59:17;101495.38;;;11.94;78.33
76866;BME280;66647;52.124;5.416;2023-03-29T12:01:55;101500.09;;;12.02;78.14
76866;BME280;66647;52.124;5.416;2023-03-29T12:04:38;101509.16;;;12.11;78.06
76866;BME280;66647;52.124;5.416;2023-03-29T12:09:57;101497.03;;;12.12;77.85
76866;BME280;66647;52.124;5.416;2023-03-29T12:12:29;101495.56;;;11.97;78.06
76866;BME280;66647;52.124;5.416;2023-03-29T12:15:19;101492.94;;;11.92;77.91
76866;BME280;66647;52.124;5.416;2023-03-29T12:20:18;101491.19;;;11.96;78.14
76866;BME280;66647;52.124;5.416;2023-03-29T12:22:49;101481.19;;;12.00;77.83
76866;BME280;66647;52.124;5.416;2023-03-29T12:25:23;101478.56;;;12.04;78.09
76866;BME280;66647;52.124;5.416;2023-03-29T12:30:57;101482.78;;;12.01;77.80
76866;BME280;66647;52.124;5.416;2023-03-29T12:33:51;101485.34;;;11.89;77.93
76866;BME280;66647;52.124;5.416;2023-03-29T12:39:45;101479.72;;;11.63;79.52
76866;BME280;66647;52.124;5.416;2023-03-29T12:42:51;101469.38;;;11.60;79.77
76866;BME280;66647;52.124;5.416;2023-03-29T12:45:43;101476.31;;;11.58;80.28
76866;BME280;66647;52.124;5.416;2023-03-29T12:48:16;101483.44;;;11.59;80.11
76866;BME280;66647;52.124;5.416;2023-03-29T12:50:53;101480.19;;;11.57;80.39
76866;BME280;66647;52.124;5.416;2023-03-29T12:53:34;101473.56;;;11.58;80.54
76866;BME280;66647;52.124;5.416;2023-03-29T13:03:50;101424.16;;;11.66;80.63
76866;BME280;66647;52.124;5.416;2023-03-29T13:09:02;101419.19;;;11.77;80.55
76866;BME280;66647;52.124;5.416;2023-03-29T13:11:36;101414.03;;;11.84;80.25
76866;BME280;66647;52.124;5.416;2023-03-29T13:14:15;101413.56;;;11.91;80.23
76866;BME280;66647;52.124;5.416;2023-03-29T13:16:43;101402.09;;;11.97;79.44
76866;BME280;66647;52.124;5.416;2023-03-29T13:24:48;101397.09;;;12.17;78.79
76866;BME280;66647;52.124;5.416;2023-03-29T13:33:15;101377.34;;;12.40;78.56
76866;BME280;66647;52.124;5.416;2023-03-29T13:36:14;101376.84;;;12.47;78.08
76866;BME280;66647;52.124;5.416;2023-03-29T13:38:47;101383.00;;;12.44;78.40
76866;BME280;66647;52.124;5.416;2023-03-29T13:46:48;101382.50;;;12.59;78.48
76866;BME280;66647;52.124;5.416;2023-03-29T13:49:20;101384.28;;;12.64;78.23
76866;BME280;66647;52.124;5.416;2023-03-29T13:52:32;101384.78;;;12.66;77.83
76866;BME280;66647;52.124;5.416;2023-03-29T13:55:21;101381.53;;;12.64;76.95
76866;BME280;66647;52.124;5.416;2023-03-29T13:57:59;101370.00;;;12.70;76.97
76866;BME280;66647;52.124;5.416;2023-03-29T14:00:38;101358.50;;;12.77;76.91
76866;BME280;66647;52.124;5.416;2023-03-29T14:03:11;101357.19;;;12.83;76.43
76866;BME280;66647;52.124;5.416;2023-03-29T14:05:43;101343.41;;;12.92;75.75
76866;BME280;66647;52.124;5.416;2023-03-29T14:08:29;101339.03;;;12.91;76.42
76866;BME280;66647;52.124;5.416;2023-03-29T14:11:00;101339.34;;;12.98;76.28
76866;BME280;66647;52.124;5.416;2023-03-29T14:13:28;101331.69;;;13.03;76.21
76866;BME280;66647;52.124;5.416;2023-03-29T14:16:00;101327.66;;;13.01;76.46
76866;BME280;66647;52.124;5.416;2023-03-29T14:18:41;101326.81;;;13.09;76.89
76866;BME280;66647;52.124;5.416;2023-03-29T14:21:11;101321.81;;;13.02;75.81
76866;BME280;66647;52.124;5.416;2023-03-29T14:24:00;101326.50;;;13.02;76.38
76866;BME280;66647;52.124;5.416;2023-03-29T14:26:33;101332.31;;;13.09;76.16
76866;BME280;66647;52.124;5.416;2023-03-29T14:29:01;101328.91;;;13.12;76.22
76866;BME280;66647;52.124;5.416;2023-03-29T14:31:33;101327.16;;;13.16;76.63
76866;BME280;66647;52.124;5.416;2023-03-29T14:34:03;101310.59;;;13.25;76.28
76866;BME280;66647;52.124;5.416;2023-03-29T14:36:31;101315.97;;;13.42;76.21
76866;BME280;66647;52.124;5.416;2023-03-29T14:39:06;101312.03;;;13.52;75.80
76866;BME280;66647;52.124;5.416;2023-03-29T14:41:35;101310.38;;;13.59;75.46
76866;BME280;66647;52.124;5.416;2023-03-29T14:44:04;101301.97;;;13.56;75.73
76866;BME280;66647;52.124;5.416;2023-03-29T14:46:33;101290.47;;;13.54;74.55
76866;BME280;66647;52.124;5.416;2023-03-29T14:49:07;101301.97;;;13.56;74.43
76866;BME280;66647;52.124;5.416;2023-03-29T14:52:04;101291.22;;;13.63;74.56
76866;BME280;66647;52.124;5.416;2023-03-29T14:57:35;101274.13;;;13.69;74.08
76866;BME280;66647;52.124;5.416;2023-03-29T15:00:39;101275.22;;;13.77;74.06
76866;BME280;66647;52.124;5.416;2023-03-29T15:04:08;101274.53;;;13.80;73.96
76866;BME280;66647;52.124;5.416;2023-03-29T15:06:41;101266.06;;;13.85;73.83
76866;BME280;66647;52.124;5.416;2023-03-29T15:09:21;101265.41;;;13.88;73.47
76866;BME280;66647;52.124;5.416;2023-03-29T15:11:52;101251.75;;;13.92;73.31
76866;BME280;66647;52.124;5.416;2023-03-29T15:14:19;101256.69;;;13.98;73.29
76866;BME280;66647;52.124;5.416;2023-03-29T15:16:49;101251.97;;;13.99;72.92
76866;BME280;66647;52.124;5.416;2023-03-29T15:19:21;101243.13;;;13.93;72.53
76866;BME280;66647;52.124;5.416;2023-03-29T15:21:52;101247.72;;;13.89;73.08
76866;BME280;66647;52.124;5.416;2023-03-29T15:24:31;101246.09;;;13.88;73.47
76866;BME280;66647;52.124;5.416;2023-03-29T15:27:02;101231.50;;;13.88;72.92
76866;BME280;66647;52.124;5.416;2023-03-29T15:29:34;101232.44;;;13.92;73.01